createdAt,value
2023-05-05T00:00:00.295Z,10.1
2023-05-05T00:05:00.366Z,12.1
2023-05-05T00:10:00.296Z,12.9
2023-05-05T00:15:00.370Z,9.6
2023-05-05T00:20:00.306Z,8.3
2023-05-05T00:25:00.305Z,10.2
2023-05-05T00:30:00.347Z,12.0
2023-05-05T00:35:00.315Z,9.3
2023-05-05T00:40:00.299Z,10.2
2023-05-05T00:45:00.328Z,8.8
2023-05-05T00:50:00.327Z,11.1
2023-05-05T00:55:00.316Z,13.0
2023-05-05T01:00:00.382Z,10.6
2023-05-05T01:05:00.328Z,8.2
2023-05-05T01:10:15.003Z,9.7
2023-05-05T01:15:00.315Z,9.0
2023-05-05T01:20:00.320Z,10.1
2023-05-05T01:25:00.383Z,10.4
2023-05-05T01:30:00.335Z,14.3
2023-05-05T01:35:00.391Z,8.1
2023-05-05T01:40:00.310Z,10.6
2023-05-05T01:45:00.317Z,10.2
2023-05-05T01:50:00.329Z,11.2
2023-05-05T01:55:00.336Z,9.9
2023-05-05T02:00:00.367Z,8.7
2023-05-05T02:05:00.305Z,10.8
2023-05-05T02:10:00.330Z,10.9
2023-05-05T02:15:00.441Z,10.1
2023-05-05T02:20:00.304Z,12.1
2023-05-05T02:25:00.299Z,12.3
2023-05-05T02:30:00.391Z,11.3
2023-05-05T02:35:00.330Z,11.4
2023-05-05T02:40:00.388Z,12.9
2023-05-05T02:45:00.316Z,11.6
2023-05-05T02:50:00.310Z,12.0
2023-05-05T02:55:00.335Z,14.3
2023-05-05T03:00:00.301Z,11.7
2023-05-05T03:05:00.314Z,11.6
2023-05-05T03:10:00.349Z,11.3
2023-05-05T03:15:00.349Z,11.9
2023-05-05T03:20:04.816Z,11.2
2023-05-05T03:25:00.334Z,12.6
2023-05-05T03:30:00.341Z,11.1
2023-05-05T03:35:00.330Z,10.8
2023-05-05T03:40:00.343Z,14.6
2023-05-05T03:45:00.323Z,13.9
2023-05-05T03:50:00.335Z,12.3
2023-05-05T03:55:00.332Z,11.8
2023-05-05T04:00:00.314Z,13.0
2023-05-05T04:05:00.355Z,14.7
2023-05-05T04:10:00.318Z,15.0
2023-05-05T04:15:00.412Z,13.6
2023-05-05T04:20:00.308Z,16.7
2023-05-05T04:25:00.325Z,13.8
2023-05-05T04:30:00.461Z,15.0
2023-05-05T04:35:00.340Z,13.3
2023-05-05T04:40:00.424Z,16.4
2023-05-05T04:45:00.300Z,14.2
2023-05-05T04:50:00.357Z,13.6
2023-05-05T04:55:00.436Z,12.1
2023-05-05T05:00:00.357Z,13.4
2023-05-05T05:05:00.358Z,12.8
2023-05-05T05:10:00.420Z,11.3
2023-05-05T05:15:00.383Z,12.6
2023-05-05T05:20:00.410Z,10.9
2023-05-05T05:25:00.361Z,12.1
2023-05-05T05:30:00.376Z,10.4
2023-05-05T05:35:00.362Z,10.1
2023-05-05T05:40:00.390Z,9.3
2023-05-05T05:45:00.373Z,9.8
2023-05-05T05:50:00.374Z,8.4
2023-05-05T05:55:00.391Z,10.3
2023-05-05T06:00:01.976Z,10.6
2023-05-05T06:05:00.372Z,10.4
2023-05-05T06:10:10.767Z,11.6
2023-05-05T06:15:00.373Z,11.0
2023-05-05T06:20:00.413Z,11.6
2023-05-05T06:25:00.448Z,9.8
2023-05-05T06:30:00.338Z,7.3
2023-05-05T06:35:00.388Z,9.6
2023-05-05T06:40:00.463Z,8.8
2023-05-05T06:45:00.384Z,6.0
2023-05-05T06:50:00.362Z,8.3
2023-05-05T06:55:00.348Z,9.3
2023-05-05T07:00:00.387Z,7.7
2023-05-05T07:05:00.423Z,6.2
2023-05-05T07:10:00.377Z,8.8
2023-05-05T07:15:04.796Z,7.7
2023-05-05T07:20:00.454Z,5.4
2023-05-05T07:25:00.378Z,7.1
2023-05-05T07:30:00.364Z,5.0
2023-05-05T07:35:00.404Z,5.0
2023-05-05T07:40:00.380Z,4.1
2023-05-05T07:45:00.365Z,3.9
2023-05-05T07:50:00.358Z,3.6
2023-05-05T07:55:00.347Z,2.9
2023-05-05T08:00:00.333Z,4.9
2023-05-05T08:05:00.363Z,6.4
2023-05-05T08:10:00.367Z,2.5
2023-05-05T08:15:00.369Z,3.1
2023-05-05T08:20:00.363Z,2.3
2023-05-05T08:25:00.349Z,4.0
2023-05-05T08:30:00.377Z,3.7
2023-05-05T08:35:00.361Z,3.9
2023-05-05T08:40:00.555Z,3.4
2023-05-05T08:45:00.376Z,4.5
2023-05-05T08:50:00.376Z,2.5
2023-05-05T08:55:00.469Z,3.7
2023-05-05T09:00:00.474Z,6.1
2023-05-05T09:05:00.386Z,3.5
2023-05-05T09:10:00.376Z,3.6
2023-05-05T09:15:01.624Z,4.6
2023-05-05T09:20:00.482Z,4.3
2023-05-05T09:25:00.500Z,2.2
2023-05-05T09:30:00.397Z,4.0
2023-05-05T09:35:00.356Z,4.3
2023-05-05T09:40:00.396Z,3.1
2023-05-05T09:45:00.513Z,2.5
2023-05-05T09:50:00.458Z,2.2
2023-05-05T09:55:00.329Z,4.4
2023-05-05T10:00:00.470Z,3.3
2023-05-05T10:05:02.172Z,3.4
2023-05-05T10:10:00.382Z,4.1
2023-05-05T10:15:00.361Z,3.0
2023-05-05T10:20:00.390Z,4.0
2023-05-05T10:25:00.364Z,3.5
2023-05-05T10:30:00.460Z,5.7
2023-05-05T10:35:00.357Z,5.8
2023-05-05T10:40:00.370Z,5.0
2023-05-05T10:45:00.440Z,5.3
2023-05-05T10:50:00.376Z,3.5
2023-05-05T10:55:00.390Z,4.3
2023-05-05T11:00:00.359Z,3.8
2023-05-05T11:05:00.355Z,3.9
2023-05-05T11:10:00.342Z,5.5
2023-05-05T11:15:00.370Z,6.7
2023-05-05T11:20:00.356Z,3.6
2023-05-05T11:25:00.451Z,8.5
2023-05-05T11:30:00.342Z,4.6
2023-05-05T11:35:00.380Z,1.8
2023-05-05T11:40:00.368Z,1.6
2023-05-05T11:45:00.382Z,0.8
2023-05-05T11:50:00.364Z,2.3
2023-05-05T11:55:00.353Z,2.5
2023-05-05T12:00:00.352Z,1.2
2023-05-05T12:05:00.445Z,1.8
2023-05-05T12:10:00.352Z,2.2
2023-05-05T12:15:00.364Z,1.7
2023-05-05T12:20:00.469Z,1.4
2023-05-05T12:25:00.358Z,3.0
2023-05-05T12:30:00.359Z,3.2
2023-05-05T12:35:00.371Z,2.4
2023-05-05T12:40:00.412Z,4.5
2023-05-05T12:45:00.341Z,5.5
2023-05-05T12:50:00.407Z,2.4
2023-05-05T12:55:00.382Z,4.8
2023-05-05T13:00:00.447Z,5.4
2023-05-05T13:05:00.308Z,4.6
2023-05-05T13:10:00.343Z,3.2
2023-05-05T13:15:00.413Z,4.1
2023-05-05T13:20:00.547Z,4.4
2023-05-05T13:25:00.372Z,4.8
2023-05-05T13:30:00.401Z,3.8
2023-05-05T13:35:00.462Z,6.0
2023-05-05T13:40:00.362Z,5.0
2023-05-05T13:45:00.357Z,3.4
2023-05-05T13:50:00.317Z,4.2
2023-05-05T13:55:00.456Z,4.1
2023-05-05T14:00:00.485Z,3.6
2023-05-05T14:05:00.395Z,5.3
2023-05-05T14:10:00.385Z,4.8
2023-05-05T14:15:00.362Z,4.2
2023-05-05T14:20:00.333Z,4.2
2023-05-05T14:25:00.342Z,4.3
2023-05-05T14:30:00.394Z,4.3
2023-05-05T14:35:00.368Z,5.5
2023-05-05T14:40:00.384Z,3.5
2023-05-05T14:45:00.352Z,3.0
2023-05-05T14:50:00.359Z,2.8
2023-05-05T14:55:00.404Z,3.7
2023-05-05T15:00:00.362Z,2.8
2023-05-05T15:05:00.559Z,2.0
2023-05-05T15:10:00.507Z,1.9
2023-05-05T15:15:00.493Z,3.1
2023-05-05T15:20:00.414Z,1.7
2023-05-05T15:25:00.344Z,3.0
2023-05-05T15:30:00.397Z,1.4
2023-05-05T15:35:00.344Z,1.4
2023-05-05T15:40:00.356Z,1.7
2023-05-05T15:45:00.512Z,1.2
2023-05-05T15:50:00.403Z,2.6
2023-05-05T15:55:00.343Z,3.3
2023-05-05T16:00:00.359Z,3.3
2023-05-05T16:05:00.370Z,3.8
2023-05-05T16:10:00.413Z,3.4
2023-05-05T16:15:00.385Z,1.7
2023-05-05T16:20:00.370Z,1.3
2023-05-05T16:25:00.354Z,2.9
2023-05-05T16:30:00.389Z,2.6
2023-05-05T16:35:00.408Z,2.4
2023-05-05T16:40:01.829Z,1.9
2023-05-05T16:45:00.356Z,2.7
2023-05-05T16:50:00.381Z,2.6
2023-05-05T16:55:00.353Z,2.2
2023-05-05T17:00:00.348Z,1.5
2023-05-05T17:05:00.558Z,2.0
2023-05-05T17:10:00.351Z,2.1
2023-05-05T17:15:00.593Z,2.6
2023-05-05T17:20:00.364Z,2.6
2023-05-05T17:25:00.449Z,1.2
2023-05-05T17:30:00.503Z,1.7
2023-05-05T17:35:00.353Z,1.1
2023-05-05T17:40:00.349Z,1.2
2023-05-05T17:45:00.513Z,3.2
2023-05-05T17:50:00.365Z,2.7
2023-05-05T17:55:00.430Z,1.9
2023-05-05T18:00:00.378Z,1.9
2023-05-05T18:05:00.354Z,1.7
2023-05-05T18:10:00.418Z,2.1
2023-05-05T18:15:00.428Z,2.6
2023-05-05T18:20:00.359Z,2.8
2023-05-05T18:25:00.352Z,3.8
2023-05-05T18:30:00.372Z,2.3
2023-05-05T18:35:00.386Z,1.8
2023-05-05T18:40:00.334Z,3.2
2023-05-05T18:45:00.308Z,3.1
2023-05-05T18:50:00.394Z,2.1
2023-05-05T18:55:00.628Z,2.2
2023-05-05T19:00:00.469Z,2.4
2023-05-05T19:05:00.849Z,3.2
2023-05-05T19:10:00.454Z,2.9
2023-05-05T19:15:00.455Z,2.9
2023-05-05T19:20:00.511Z,2.6
2023-05-05T19:25:00.426Z,2.6
2023-05-05T19:30:00.468Z,4.6
2023-05-05T19:35:00.599Z,4.5
2023-05-05T19:40:00.421Z,4.3
2023-05-05T19:45:00.475Z,4.4
2023-05-05T19:50:00.457Z,4.2
2023-05-05T19:55:00.470Z,3.9
2023-05-05T20:00:00.622Z,4.1
2023-05-05T20:05:00.447Z,4.0
2023-05-05T20:10:00.432Z,3.8
2023-05-05T20:15:00.456Z,4.7
2023-05-05T20:20:00.500Z,4.6
2023-05-05T20:25:00.476Z,5.4
2023-05-05T20:30:00.437Z,4.9
2023-05-05T20:35:00.511Z,4.1
2023-05-05T20:40:00.529Z,3.9
2023-05-05T20:45:00.543Z,4.9
2023-05-05T20:50:00.498Z,5.9
2023-05-05T20:55:00.451Z,5.8
2023-05-05T21:00:00.620Z,4.9
2023-05-05T21:05:00.503Z,6.3
2023-05-05T21:10:00.451Z,11.9
2023-05-05T21:15:00.447Z,8.5
2023-05-05T21:20:00.495Z,6.7
2023-05-05T21:25:00.431Z,7.5
2023-05-05T21:30:00.466Z,5.0
2023-05-05T21:35:00.503Z,6.3
2023-05-05T21:40:00.490Z,6.8
2023-05-05T21:45:00.457Z,5.2
2023-05-05T21:50:00.528Z,6.2
2023-05-05T21:55:00.475Z,6.2
2023-05-05T22:00:00.460Z,4.0
2023-05-05T22:05:00.477Z,6.6
2023-05-05T22:10:00.448Z,5.7
2023-05-05T22:15:00.475Z,8.0
2023-05-05T22:20:00.542Z,6.3
2023-05-05T22:25:00.488Z,6.7
2023-05-05T22:30:00.451Z,7.0
2023-05-05T22:35:00.448Z,5.1
2023-05-05T22:40:00.451Z,6.1
2023-05-05T22:45:00.515Z,5.5
2023-05-05T22:50:00.509Z,6.7
2023-05-05T22:55:00.567Z,6.5
2023-05-05T23:00:00.459Z,6.1
2023-05-05T23:05:00.466Z,7.2
2023-05-05T23:10:00.446Z,7.4
2023-05-05T23:15:00.450Z,7.3
2023-05-05T23:20:00.450Z,8.8
2023-05-05T23:25:00.544Z,7.4
2023-05-05T23:30:00.482Z,6.9
2023-05-05T23:35:00.459Z,9.8
2023-05-05T23:40:00.452Z,12.5
2023-05-05T23:45:00.475Z,8.7
2023-05-05T23:50:00.486Z,7.6
2023-05-05T23:55:00.504Z,8.0
